createdAt,value
2018-12-06T00:00:50.039Z,0
2018-12-06T00:01:59.722Z,0
2018-12-06T00:03:09.662Z,0
2018-12-06T00:04:19.356Z,0
2018-12-06T00:05:29.339Z,0
2018-12-06T00:06:39.285Z,0
2018-12-06T00:07:49.247Z,0
2018-12-06T00:08:59.190Z,0
2018-12-06T00:10:08.888Z,0
2018-12-06T00:11:18.835Z,0
2018-12-06T00:12:28.793Z,0
2018-12-06T00:13:38.228Z,0
2018-12-06T00:14:47.935Z,0
2018-12-06T00:15:57.869Z,0
2018-12-06T00:17:07.809Z,0
2018-12-06T00:18:17.503Z,0
2018-12-06T00:19:27.187Z,0
2018-12-06T00:20:36.893Z,0
2018-12-06T00:21:46.844Z,0
2018-12-06T00:22:56.537Z,0
2018-12-06T00:24:06.269Z,0
2018-12-06T00:25:16.209Z,0
2018-12-06T00:26:25.891Z,0
2018-12-06T00:27:35.849Z,0
2018-12-06T00:28:45.545Z,0
2018-12-06T00:29:54.980Z,0
2018-12-06T00:31:04.914Z,0
2018-12-06T00:32:14.596Z,0
2018-12-06T00:33:24.545Z,0
2018-12-06T00:34:34.281Z,0
2018-12-06T00:35:43.977Z,0
2018-12-06T00:36:53.920Z,0
2018-12-06T00:38:03.351Z,0
2018-12-06T00:39:13.295Z,0
2018-12-06T00:40:22.723Z,0
2018-12-06T00:41:32.407Z,0
2018-12-06T00:42:42.348Z,0
2018-12-06T00:43:52.068Z,0
2018-12-06T00:45:02.004Z,0
2018-12-06T00:46:11.704Z,0
2018-12-06T00:47:21.637Z,0
2018-12-06T00:48:31.336Z,0
2018-12-06T00:49:40.770Z,0
2018-12-06T00:50:50.727Z,0
2018-12-06T00:52:00.663Z,0
2018-12-06T00:53:10.608Z,0
2018-12-06T00:54:20.554Z,0
2018-12-06T00:55:30.254Z,0
2018-12-06T00:56:40.199Z,0
2018-12-06T00:57:49.888Z,0
2018-12-06T00:58:59.076Z,0
2018-12-06T01:00:08.771Z,0
2018-12-06T01:01:18.476Z,0
2018-12-06T01:02:28.186Z,0
2018-12-06T01:03:37.872Z,0
2018-12-06T01:04:47.583Z,0
2018-12-06T01:05:57.524Z,0
2018-12-06T01:07:07.486Z,0
2018-12-06T01:08:17.179Z,0
2018-12-06T01:09:26.372Z,0
2018-12-06T01:10:36.068Z,0
2018-12-06T01:11:45.749Z,0
2018-12-06T01:12:55.465Z,0
2018-12-06T01:14:05.183Z,0
2018-12-06T01:15:15.148Z,0
2018-12-06T01:16:24.855Z,0
2018-12-06T01:17:34.549Z,0
2018-12-06T01:18:44.496Z,0
2018-12-06T01:19:54.188Z,0
2018-12-06T01:21:04.146Z,0
2018-12-06T01:22:14.086Z,0
2018-12-06T01:23:23.790Z,0
2018-12-06T01:24:33.528Z,0
2018-12-06T01:25:43.224Z,0
2018-12-06T01:26:52.909Z,0
2018-12-06T01:28:02.838Z,0
2018-12-06T01:29:12.524Z,0
2018-12-06T01:30:22.477Z,0
2018-12-06T01:31:31.918Z,0
2018-12-06T01:32:41.723Z,0
2018-12-06T01:33:51.179Z,0
2018-12-06T01:35:01.125Z,0
2018-12-06T01:36:11.058Z,0
2018-12-06T01:37:20.802Z,0
2018-12-06T01:38:30.503Z,0
2018-12-06T01:39:40.431Z,0
2018-12-06T01:40:50.133Z,0
2018-12-06T01:42:00.073Z,0
2018-12-06T01:43:10.031Z,0
2018-12-06T01:44:19.985Z,0
2018-12-06T01:45:29.175Z,0
2018-12-06T01:46:38.886Z,0
2018-12-06T01:47:48.583Z,0
2018-12-06T01:48:58.282Z,0
2018-12-06T01:50:08.234Z,0
2018-12-06T01:51:18.181Z,0
2018-12-06T01:52:28.115Z,0
2018-12-06T01:53:37.802Z,0
2018-12-06T01:54:47.747Z,0
2018-12-06T01:55:57.690Z,0
2018-12-06T01:57:07.621Z,0
2018-12-06T01:58:17.305Z,0
2018-12-06T01:59:26.985Z,0
2018-12-06T02:00:36.419Z,0
2018-12-06T02:01:46.344Z,0
2018-12-06T02:02:56.273Z,0
2018-12-06T02:04:06.205Z,0
2018-12-06T02:05:15.890Z,0
2018-12-06T02:06:25.586Z,0
2018-12-06T02:07:35.545Z,0
2018-12-06T02:08:45.060Z,0
2018-12-06T02:09:55.077Z,0
2018-12-06T02:11:04.783Z,0
2018-12-06T02:12:14.561Z,0
2018-12-06T02:13:24.250Z,0
2018-12-06T02:14:34.201Z,0
2018-12-06T02:15:43.888Z,0
2018-12-06T02:16:53.819Z,0
2018-12-06T02:18:03.500Z,0
2018-12-06T02:19:13.190Z,0
2018-12-06T02:20:22.872Z,0
2018-12-06T02:21:32.815Z,0
2018-12-06T02:22:42.748Z,0
2018-12-06T02:23:52.457Z,0
2018-12-06T02:25:02.405Z,0
2018-12-06T02:26:12.104Z,0
2018-12-06T02:27:22.040Z,0
2018-12-06T02:28:31.748Z,0
2018-12-06T02:29:41.674Z,0
2018-12-06T02:30:51.484Z,0
2018-12-06T02:32:01.456Z,0
2018-12-06T02:33:11.199Z,0
2018-12-06T02:34:21.165Z,0
2018-12-06T02:35:31.112Z,0
2018-12-06T02:36:40.821Z,0
2018-12-06T02:37:50.788Z,0
2018-12-06T02:39:00.491Z,0
2018-12-06T02:40:09.925Z,0
2018-12-06T02:41:19.869Z,0
2018-12-06T02:42:29.919Z,0
2018-12-06T02:43:39.640Z,0
2018-12-06T02:44:49.608Z,0
2018-12-06T02:45:59.090Z,0
2018-12-06T02:47:09.080Z,0
2018-12-06T02:48:19.040Z,0
2018-12-06T02:49:28.757Z,0
2018-12-06T02:50:38.195Z,0
2018-12-06T02:51:48.139Z,0
2018-12-06T02:52:58.084Z,0
2018-12-06T02:54:08.045Z,0
2018-12-06T02:55:17.738Z,0
2018-12-06T02:56:27.436Z,0
2018-12-06T02:57:37.129Z,0
2018-12-06T02:58:47.107Z,0
2018-12-06T02:59:56.810Z,0
2018-12-06T03:01:06.508Z,0
2018-12-06T03:02:16.227Z,0
2018-12-06T03:03:26.190Z,0
2018-12-06T03:04:35.882Z,0
2018-12-06T03:05:45.831Z,0
2018-12-06T03:06:55.780Z,0
2018-12-06T03:08:05.467Z,0
2018-12-06T03:09:15.558Z,0
2018-12-06T03:10:25.519Z,0
2018-12-06T03:11:35.460Z,0
2018-12-06T03:12:45.399Z,0
2018-12-06T03:13:55.083Z,0
2018-12-06T03:15:04.774Z,0
2018-12-06T03:16:14.726Z,0
2018-12-06T03:17:24.672Z,0
2018-12-06T03:18:34.394Z,0
2018-12-06T03:19:44.341Z,0
2018-12-06T03:20:54.044Z,0
2018-12-06T03:22:03.529Z,0
2018-12-06T03:23:13.465Z,0
2018-12-06T03:24:23.413Z,0
2018-12-06T03:25:33.099Z,0
2018-12-06T03:26:42.777Z,0
2018-12-06T03:27:52.214Z,0
2018-12-06T03:29:02.646Z,0
2018-12-06T03:30:12.450Z,0
2018-12-06T03:31:22.202Z,0
2018-12-06T03:32:32.182Z,0
2018-12-06T03:33:41.904Z,0
2018-12-06T03:34:51.978Z,0
2018-12-06T03:36:01.678Z,0
2018-12-06T03:37:11.628Z,0
2018-12-06T03:38:21.618Z,0
2018-12-06T03:39:31.316Z,0
2018-12-06T03:40:41.275Z,0
2018-12-06T03:41:50.987Z,0
2018-12-06T03:43:00.923Z,0
2018-12-06T03:44:10.635Z,0
2018-12-06T03:45:20.081Z,0
2018-12-06T03:46:29.775Z,0
2018-12-06T03:47:39.719Z,0
2018-12-06T03:48:49.665Z,0
2018-12-06T03:49:59.368Z,0
2018-12-06T03:51:09.077Z,0
2018-12-06T03:52:19.007Z,0
2018-12-06T03:53:28.952Z,0
2018-12-06T03:54:38.392Z,0
2018-12-06T03:55:48.329Z,0
2018-12-06T03:56:58.032Z,0
2018-12-06T03:58:07.997Z,0
2018-12-06T03:59:17.801Z,0
2018-12-06T04:00:27.494Z,0
2018-12-06T04:01:37.187Z,0
2018-12-06T04:02:46.870Z,0
2018-12-06T04:03:56.809Z,0
2018-12-06T04:05:06.758Z,0
2018-12-06T04:06:16.459Z,0
2018-12-06T04:07:26.137Z,0
2018-12-06T04:08:35.852Z,0
2018-12-06T04:09:45.550Z,0
2018-12-06T04:10:55.504Z,0
2018-12-06T04:12:04.962Z,0
2018-12-06T04:13:14.929Z,0
2018-12-06T04:14:24.647Z,0
2018-12-06T04:15:34.347Z,0
2018-12-06T04:16:44.045Z,0
2018-12-06T04:17:53.989Z,0
2018-12-06T04:19:03.936Z,0
2018-12-06T04:20:13.885Z,0
2018-12-06T04:21:23.570Z,0
2018-12-06T04:22:33.505Z,0
2018-12-06T04:23:43.448Z,0
2018-12-06T04:24:53.227Z,0
2018-12-06T04:26:03.191Z,0
2018-12-06T04:27:13.131Z,0
2018-12-06T04:28:23.092Z,0
2018-12-06T04:29:33.047Z,0
2018-12-06T04:30:42.992Z,0
2018-12-06T04:31:52.694Z,0
2018-12-06T04:33:02.647Z,0
2018-12-06T04:34:12.586Z,0
2018-12-06T04:35:22.047Z,0
2018-12-06T04:36:32.003Z,0
2018-12-06T04:37:41.703Z,0
2018-12-06T04:38:51.649Z,0
2018-12-06T04:40:01.594Z,0
2018-12-06T04:41:11.553Z,0
2018-12-06T04:42:21.496Z,0
2018-12-06T04:43:30.936Z,0
2018-12-06T04:44:40.901Z,0
2018-12-06T04:45:50.848Z,0
2018-12-06T04:47:00.551Z,0
2018-12-06T04:48:10.490Z,0
2018-12-06T04:49:20.418Z,0
2018-12-06T04:50:30.369Z,0
2018-12-06T04:51:40.336Z,0
2018-12-06T04:52:50.048Z,0
2018-12-06T04:53:59.995Z,0
2018-12-06T04:55:09.694Z,0
2018-12-06T04:56:19.672Z,0
2018-12-06T04:57:29.118Z,0
2018-12-06T04:58:38.806Z,0
2018-12-06T04:59:48.796Z,0
2018-12-06T05:00:58.761Z,0
2018-12-06T05:02:08.786Z,0
2018-12-06T05:03:18.495Z,0
2018-12-06T05:04:28.430Z,0
2018-12-06T05:05:38.377Z,0
2018-12-06T05:06:48.064Z,0
2018-12-06T05:07:58.002Z,0
2018-12-06T05:09:08.311Z,0
2018-12-06T05:10:18.248Z,0
2018-12-06T05:11:28.177Z,0
2018-12-06T05:12:37.862Z,0
2018-12-06T05:13:47.887Z,0
2018-12-06T05:14:57.566Z,0
2018-12-06T05:16:27.421Z,0
2018-12-06T05:17:37.393Z,0
2018-12-06T05:18:46.832Z,0
2018-12-06T05:19:56.538Z,0
2018-12-06T05:21:06.488Z,0
2018-12-06T05:22:15.938Z,0
2018-12-06T05:23:25.635Z,0
2018-12-06T05:24:35.571Z,0
2018-12-06T05:25:45.514Z,0
2018-12-06T05:26:55.215Z,0
2018-12-06T05:28:05.156Z,0
2018-12-06T05:29:15.092Z,0
2018-12-06T05:30:24.801Z,0
2018-12-06T05:31:34.736Z,0
2018-12-06T05:32:44.445Z,0
2018-12-06T05:33:54.425Z,0
2018-12-06T05:35:04.129Z,0
2018-12-06T05:36:14.088Z,0
2018-12-06T05:37:24.023Z,0
2018-12-06T05:38:33.971Z,0
2018-12-06T05:39:43.405Z,0
2018-12-06T05:40:53.346Z,0
2018-12-06T05:42:03.289Z,0
2018-12-06T05:43:13.225Z,0
2018-12-06T05:44:23.164Z,0
2018-12-06T05:45:32.866Z,0
2018-12-06T05:46:42.558Z,0
2018-12-06T05:47:51.989Z,0
2018-12-06T05:49:01.429Z,0
2018-12-06T05:50:11.121Z,0
2018-12-06T05:51:21.289Z,0
2018-12-06T05:52:31.251Z,0
2018-12-06T05:53:40.952Z,0
2018-12-06T05:54:50.634Z,0
2018-12-06T05:56:00.583Z,0
2018-12-06T05:57:10.282Z,0
2018-12-06T05:58:19.725Z,0
2018-12-06T05:59:29.159Z,0
2018-12-06T06:00:39.116Z,0
2018-12-06T06:01:48.549Z,0
2018-12-06T06:02:58.494Z,0
2018-12-06T06:04:08.462Z,0
2018-12-06T06:05:18.412Z,0
2018-12-06T06:06:28.362Z,0
2018-12-06T06:07:38.300Z,0
2018-12-06T06:08:48.004Z,0
2018-12-06T06:09:57.788Z,0
2018-12-06T06:11:07.742Z,0
2018-12-06T06:12:17.688Z,0
2018-12-06T06:13:27.400Z,0
2018-12-06T06:14:37.345Z,0
2018-12-06T06:15:47.364Z,0
2018-12-06T06:16:57.058Z,0
2018-12-06T06:18:06.510Z,0
2018-12-06T06:19:16.223Z,0
2018-12-06T06:20:26.188Z,0
2018-12-06T06:21:36.148Z,0
2018-12-06T06:22:46.084Z,0
2018-12-06T06:23:55.788Z,0
2018-12-06T06:25:05.805Z,0
2018-12-06T06:26:15.496Z,0
2018-12-06T06:27:26.258Z,0
2018-12-06T06:28:36.369Z,0
2018-12-06T06:29:46.316Z,0
2018-12-06T06:30:55.852Z,0
2018-12-06T06:32:05.797Z,0
2018-12-06T06:33:15.983Z,0
2018-12-06T06:34:25.698Z,0
2018-12-06T06:35:35.399Z,0
2018-12-06T06:36:45.118Z,0
2018-12-06T06:37:54.800Z,0
2018-12-06T06:39:04.499Z,0
2018-12-06T06:40:14.179Z,0
2018-12-06T06:41:23.391Z,0
2018-12-06T06:42:33.080Z,0
2018-12-06T06:43:42.776Z,0
2018-12-06T06:44:52.531Z,0
2018-12-06T06:46:02.481Z,0
2018-12-06T06:47:12.420Z,0
2018-12-06T06:48:22.379Z,0
2018-12-06T06:49:32.070Z,0
2018-12-06T06:50:42.046Z,0
2018-12-06T06:51:51.736Z,0
2018-12-06T06:53:01.690Z,0
2018-12-06T06:54:11.858Z,0
2018-12-06T06:55:21.826Z,0
2018-12-06T06:56:31.778Z,0
2018-12-06T06:57:41.221Z,0
2018-12-06T06:58:50.921Z,0
2018-12-06T07:00:00.370Z,5
2018-12-06T07:01:10.090Z,5
2018-12-06T07:02:19.795Z,5
2018-12-06T07:03:29.802Z,5
2018-12-06T07:04:39.342Z,5
2018-12-06T07:05:49.306Z,5
2018-12-06T07:06:59.553Z,5
2018-12-06T07:08:09.520Z,10
2018-12-06T07:09:19.459Z,10
2018-12-06T07:10:29.415Z,10
2018-12-06T07:11:39.128Z,15
2018-12-06T07:12:48.594Z,15
2018-12-06T07:13:58.292Z,15
2018-12-06T07:15:07.992Z,20
2018-12-06T07:16:17.750Z,20
2018-12-06T07:17:27.709Z,25
2018-12-06T07:18:37.519Z,25
2018-12-06T07:19:47.236Z,30
2018-12-06T07:20:56.702Z,35
2018-12-06T07:22:06.151Z,35
2018-12-06T07:23:16.198Z,40
2018-12-06T07:24:26.164Z,40
2018-12-06T07:25:35.920Z,45
2018-12-06T07:26:46.367Z,45
2018-12-06T07:27:56.345Z,50
2018-12-06T07:29:06.312Z,55
2018-12-06T07:30:22.025Z,55
2018-12-06T07:31:31.996Z,55
2018-12-06T07:32:41.966Z,60
2018-12-06T07:33:51.860Z,60
2018-12-06T07:35:01.822Z,65
2018-12-06T07:36:11.521Z,70
2018-12-06T07:37:21.472Z,75
2018-12-06T07:38:31.276Z,75
2018-12-06T07:39:41.022Z,80
2018-12-06T07:40:50.995Z,85
2018-12-06T07:42:00.948Z,85
2018-12-06T07:43:10.398Z,90
2018-12-06T07:44:20.354Z,90
2018-12-06T07:45:30.054Z,90
2018-12-06T07:46:39.514Z,90
2018-12-06T07:47:49.510Z,90
2018-12-06T07:48:59.490Z,95
2018-12-06T07:50:09.450Z,95
2018-12-06T07:51:19.424Z,100
2018-12-06T07:52:29.154Z,100
2018-12-06T07:53:39.120Z,105
2018-12-06T07:54:49.104Z,105
2018-12-06T07:55:59.070Z,100
2018-12-06T07:57:08.526Z,100
2018-12-06T07:58:18.034Z,95
2018-12-06T07:59:27.979Z,95
2018-12-06T08:00:37.684Z,95
2018-12-06T08:01:47.436Z,95
2018-12-06T08:02:56.883Z,100
2018-12-06T08:04:06.850Z,105
2018-12-06T08:05:16.553Z,110
2018-12-06T08:06:26.265Z,110
2018-12-06T08:07:36.232Z,110
2018-12-06T08:08:45.946Z,110
2018-12-06T08:09:55.669Z,110
2018-12-06T08:11:05.438Z,110
2018-12-06T08:12:15.184Z,110
2018-12-06T08:13:25.144Z,110
2018-12-06T08:14:35.110Z,110
2018-12-06T08:15:44.843Z,110
2018-12-06T08:16:54.805Z,115
2018-12-06T08:18:04.759Z,125
2018-12-06T08:19:16.471Z,190
2018-12-06T08:20:26.423Z,195
2018-12-06T08:21:36.162Z,200
2018-12-06T08:22:46.117Z,190
2018-12-06T08:23:55.593Z,140
2018-12-06T08:25:05.303Z,120
2018-12-06T08:26:15.268Z,125
2018-12-06T08:27:24.984Z,125
2018-12-06T08:28:34.967Z,125
2018-12-06T08:29:44.930Z,130
2018-12-06T08:30:54.942Z,130
2018-12-06T08:32:04.909Z,130
2018-12-06T08:33:14.900Z,125
2018-12-06T08:34:24.650Z,125
2018-12-06T08:35:34.618Z,120
2018-12-06T08:36:44.587Z,120
2018-12-06T08:37:54.713Z,120
2018-12-06T08:39:04.211Z,120
2018-12-06T08:40:14.176Z,120
2018-12-06T08:41:23.881Z,120
2018-12-06T08:42:33.667Z,125
2018-12-06T08:43:43.614Z,120
2018-12-06T08:44:53.565Z,125
2018-12-06T08:46:03.524Z,130
2018-12-06T08:47:13.486Z,130
2018-12-06T08:48:23.453Z,130
2018-12-06T08:49:33.425Z,135
2018-12-06T08:50:43.382Z,130
2018-12-06T08:51:53.089Z,130
2018-12-06T08:53:02.546Z,130
2018-12-06T08:54:12.495Z,130
2018-12-06T08:55:22.212Z,125
2018-12-06T08:56:32.170Z,120
2018-12-06T08:57:42.131Z,120
2018-12-06T08:58:51.868Z,120
2018-12-06T09:00:01.603Z,125
2018-12-06T09:01:13.325Z,130
2018-12-06T09:02:23.048Z,135
2018-12-06T09:03:33.014Z,135
2018-12-06T09:04:44.576Z,135
2018-12-06T09:05:54.276Z,135
2018-12-06T09:07:03.736Z,135
2018-12-06T09:08:13.750Z,125
2018-12-06T09:09:23.222Z,120
2018-12-06T09:10:33.193Z,115
2018-12-06T09:11:42.895Z,120
2018-12-06T09:12:52.850Z,125
2018-12-06T09:14:02.821Z,135
2018-12-06T09:15:12.531Z,140
2018-12-06T09:16:23.619Z,140
2018-12-06T09:17:33.113Z,140
2018-12-06T09:18:42.835Z,130
2018-12-06T09:19:52.794Z,115
2018-12-06T09:21:02.862Z,110
2018-12-06T09:22:12.823Z,105
2018-12-06T09:23:22.524Z,100
2018-12-06T09:24:31.967Z,95
2018-12-06T09:25:41.939Z,90
2018-12-06T09:26:58.453Z,85
2018-12-06T09:28:08.745Z,80
2018-12-06T09:29:18.482Z,80
2018-12-06T09:30:28.195Z,75
2018-12-06T09:31:38.163Z,75
2018-12-06T09:32:48.175Z,80
2018-12-06T09:33:58.282Z,80
2018-12-06T09:35:07.751Z,75
2018-12-06T09:36:17.727Z,70
2018-12-06T09:37:27.691Z,70
2018-12-06T09:38:37.402Z,70
2018-12-06T09:39:47.349Z,75
2018-12-06T09:40:57.331Z,75
2018-12-06T09:42:07.031Z,75
2018-12-06T09:43:16.214Z,75
2018-12-06T09:44:25.679Z,75
2018-12-06T09:45:35.406Z,75
2018-12-06T09:46:45.069Z,70
2018-12-06T09:47:55.049Z,65
2018-12-06T09:49:04.763Z,65
2018-12-06T09:50:14.767Z,65
2018-12-06T09:51:24.523Z,65
2018-12-06T09:52:34.242Z,65
2018-12-06T09:53:44.196Z,65
2018-12-06T09:54:53.913Z,70
2018-12-06T09:56:03.970Z,70
2018-12-06T09:57:13.908Z,70
2018-12-06T09:58:23.623Z,75
2018-12-06T09:59:33.571Z,75
2018-12-06T10:00:43.531Z,75
2018-12-06T10:01:53.506Z,80
2018-12-06T10:03:03.217Z,80
2018-12-06T10:04:13.218Z,80
2018-12-06T10:05:23.533Z,80
2018-12-06T10:06:33.481Z,80
2018-12-06T10:07:43.437Z,80
2018-12-06T10:08:53.401Z,80
2018-12-06T10:10:03.365Z,75
2018-12-06T10:11:13.065Z,75
2018-12-06T10:12:23.016Z,80
2018-12-06T10:13:32.975Z,80
2018-12-06T10:14:42.752Z,85
2018-12-06T10:15:52.440Z,80
2018-12-06T10:17:02.166Z,80
2018-12-06T10:18:12.119Z,80
2018-12-06T10:19:21.836Z,80
2018-12-06T10:20:31.795Z,85
2018-12-06T10:21:41.745Z,85
2018-12-06T10:22:51.701Z,90
2018-12-06T10:24:01.664Z,90
2018-12-06T10:25:11.670Z,90
2018-12-06T10:26:21.683Z,90
2018-12-06T10:27:31.629Z,90
2018-12-06T10:28:41.770Z,90
2018-12-06T10:29:51.618Z,85
2018-12-06T10:31:01.581Z,80
2018-12-06T10:32:11.277Z,75
2018-12-06T10:33:21.226Z,75
2018-12-06T10:34:31.183Z,75
2018-12-06T10:35:40.872Z,70
2018-12-06T10:36:50.333Z,70
2018-12-06T10:38:00.293Z,70
2018-12-06T10:39:10.235Z,75
2018-12-06T10:40:20.234Z,75
2018-12-06T10:41:29.947Z,70
2018-12-06T10:42:39.439Z,70
2018-12-06T10:43:49.422Z,70
2018-12-06T10:44:59.380Z,75
2018-12-06T10:46:09.367Z,75
2018-12-06T10:47:19.336Z,75
2018-12-06T10:48:29.033Z,70
2018-12-06T10:49:39.025Z,70
2018-12-06T10:50:48.992Z,70
2018-12-06T10:51:58.951Z,70
2018-12-06T10:53:08.900Z,75
2018-12-06T10:54:18.857Z,75
2018-12-06T10:55:28.811Z,75
2018-12-06T10:56:38.765Z,75
2018-12-06T10:57:48.760Z,80
2018-12-06T10:58:58.852Z,85
2018-12-06T11:00:08.825Z,95
2018-12-06T11:01:18.275Z,110
2018-12-06T11:02:28.233Z,120
2018-12-06T11:03:38.208Z,130
2018-12-06T11:04:48.182Z,135
2018-12-06T11:05:58.142Z,145
2018-12-06T11:07:08.122Z,145
2018-12-06T11:08:18.126Z,150
2018-12-06T11:09:28.064Z,150
2018-12-06T11:10:37.765Z,160
2018-12-06T11:11:47.802Z,160
2018-12-06T11:12:57.749Z,155
2018-12-06T11:14:07.443Z,145
2018-12-06T11:15:16.910Z,135
2018-12-06T11:16:26.871Z,130
2018-12-06T11:17:38.006Z,130
2018-12-06T11:18:48.026Z,130
2018-12-06T11:19:57.999Z,135
2018-12-06T11:21:07.946Z,140
2018-12-06T11:22:17.923Z,140
2018-12-06T11:23:27.755Z,140
2018-12-06T11:24:37.476Z,140
2018-12-06T11:25:47.530Z,145
2018-12-06T11:26:57.496Z,150
2018-12-06T11:28:07.443Z,165
2018-12-06T11:29:16.881Z,165
2018-12-06T11:30:26.908Z,170
2018-12-06T11:31:37.124Z,180
2018-12-06T11:32:46.827Z,190
2018-12-06T11:33:56.786Z,195
2018-12-06T11:35:06.766Z,195
2018-12-06T11:36:16.556Z,190
2018-12-06T11:37:26.616Z,195
2018-12-06T11:38:36.565Z,200
2018-12-06T11:39:46.532Z,190
2018-12-06T11:40:56.235Z,170
2018-12-06T11:42:05.950Z,155
2018-12-06T11:43:15.914Z,145
2018-12-06T11:44:25.619Z,140
2018-12-06T11:45:35.341Z,130
2018-12-06T11:46:45.317Z,125
2018-12-06T11:47:56.024Z,120
2018-12-06T11:49:05.778Z,110
2018-12-06T11:50:15.735Z,110
2018-12-06T11:51:25.699Z,110
2018-12-06T11:52:35.135Z,110
2018-12-06T11:53:45.095Z,115
2018-12-06T11:54:54.791Z,105
2018-12-06T11:56:04.726Z,95
2018-12-06T11:57:14.691Z,95
2018-12-06T11:58:24.649Z,95
2018-12-06T11:59:34.360Z,100
2018-12-06T12:00:44.294Z,105
2018-12-06T12:01:54.007Z,105
2018-12-06T12:03:03.715Z,105
2018-12-06T12:04:13.672Z,105
2018-12-06T12:05:23.383Z,105
2018-12-06T12:06:33.355Z,100
2018-12-06T12:07:43.309Z,105
2018-12-06T12:08:53.267Z,100
2018-12-06T12:10:02.987Z,95
2018-12-06T12:11:12.954Z,95
2018-12-06T12:12:22.418Z,100
2018-12-06T12:13:32.369Z,100
2018-12-06T12:14:42.334Z,90
2018-12-06T12:15:52.282Z,85
2018-12-06T12:17:02.091Z,80
2018-12-06T12:18:11.797Z,80
2018-12-06T12:19:21.747Z,80
2018-12-06T12:20:31.702Z,75
2018-12-06T12:21:41.658Z,80
2018-12-06T12:22:51.376Z,80
2018-12-06T12:24:01.319Z,85
2018-12-06T12:25:11.041Z,85
2018-12-06T12:26:21.259Z,85
2018-12-06T12:27:30.988Z,95
2018-12-06T12:28:40.954Z,100
2018-12-06T12:29:50.417Z,105
2018-12-06T12:31:00.358Z,115
2018-12-06T12:32:10.074Z,125
2018-12-06T12:33:19.775Z,130
2018-12-06T12:34:29.746Z,120
2018-12-06T12:35:39.483Z,105
2018-12-06T12:36:49.200Z,95
2018-12-06T12:37:58.896Z,90
2018-12-06T12:39:08.604Z,90
2018-12-06T12:40:18.565Z,85
2018-12-06T12:41:28.274Z,85
2018-12-06T12:42:38.002Z,80
2018-12-06T12:43:47.952Z,75
2018-12-06T12:44:57.900Z,70
2018-12-06T12:46:07.601Z,70
2018-12-06T12:47:17.557Z,65
2018-12-06T12:48:27.255Z,60
2018-12-06T12:49:37.212Z,55
2018-12-06T12:50:46.951Z,55
2018-12-06T12:51:56.892Z,55
2018-12-06T12:53:06.844Z,55
2018-12-06T12:54:16.795Z,55
2018-12-06T12:55:26.755Z,50
2018-12-06T12:56:35.971Z,45
2018-12-06T12:57:45.922Z,40
2018-12-06T12:58:55.896Z,40
2018-12-06T13:00:05.849Z,35
2018-12-06T13:01:15.814Z,35
2018-12-06T13:02:25.514Z,30
2018-12-06T13:03:34.974Z,30
2018-12-06T13:04:44.925Z,30
2018-12-06T13:05:54.865Z,30
2018-12-06T13:07:04.829Z,25
2018-12-06T13:08:14.797Z,25
2018-12-06T13:09:24.506Z,25
2018-12-06T13:10:34.500Z,25
2018-12-06T13:11:44.207Z,25
2018-12-06T13:12:54.165Z,25
2018-12-06T13:14:04.117Z,30
2018-12-06T13:15:14.063Z,30
2018-12-06T13:16:23.781Z,30
2018-12-06T13:17:33.480Z,30
2018-12-06T13:18:43.186Z,30
2018-12-06T13:19:52.882Z,30
2018-12-06T13:21:02.829Z,30
2018-12-06T13:22:12.541Z,25
2018-12-06T13:23:22.485Z,25
2018-12-06T13:24:32.427Z,25
2018-12-06T13:25:42.118Z,25
2018-12-06T13:26:52.056Z,25
2018-12-06T13:28:02.017Z,25
2018-12-06T13:29:11.459Z,25
2018-12-06T13:30:20.924Z,25
2018-12-06T13:31:30.623Z,25
2018-12-06T13:32:40.324Z,25
2018-12-06T13:33:49.797Z,30
2018-12-06T13:34:59.900Z,30
2018-12-06T13:36:09.854Z,30
2018-12-06T13:37:19.804Z,30
2018-12-06T13:38:29.554Z,30
2018-12-06T13:39:39.262Z,25
2018-12-06T13:40:49.221Z,25
2018-12-06T13:41:59.176Z,25
2018-12-06T13:43:09.134Z,25
2018-12-06T13:44:19.425Z,25
2018-12-06T13:45:29.478Z,25
2018-12-06T13:46:39.415Z,20
2018-12-06T13:47:49.369Z,20
2018-12-06T13:48:59.314Z,20
2018-12-06T13:50:09.378Z,20
2018-12-06T13:51:19.080Z,20
2018-12-06T13:52:28.533Z,20
2018-12-06T13:53:38.485Z,20
2018-12-06T13:54:48.446Z,20
2018-12-06T13:55:58.166Z,20
2018-12-06T13:57:07.619Z,20
2018-12-06T13:58:17.649Z,20
2018-12-06T13:59:27.355Z,20
2018-12-06T14:00:38.003Z,15
2018-12-06T14:01:48.145Z,15
2018-12-06T14:02:58.178Z,15
2018-12-06T14:04:08.153Z,15
2018-12-06T14:05:18.114Z,15
2018-12-06T14:06:28.088Z,15
2018-12-06T14:07:38.062Z,15
2018-12-06T14:08:48.026Z,15
2018-12-06T14:09:57.983Z,15
2018-12-06T14:11:07.688Z,15
2018-12-06T14:12:17.392Z,15
2018-12-06T14:13:33.078Z,15
2018-12-06T14:14:43.016Z,15
2018-12-06T14:15:52.990Z,15
2018-12-06T14:17:02.964Z,15
2018-12-06T14:18:12.924Z,20
2018-12-06T14:19:22.639Z,20
2018-12-06T14:20:32.336Z,20
2018-12-06T14:21:42.046Z,20
2018-12-06T14:22:52.271Z,15
2018-12-06T14:24:01.963Z,15
2018-12-06T14:25:11.942Z,10
2018-12-06T14:26:21.977Z,10
2018-12-06T14:27:31.928Z,5
2018-12-06T14:28:41.870Z,5
2018-12-06T14:29:51.831Z,5
2018-12-06T14:31:01.893Z,5
2018-12-06T14:32:11.611Z,5
2018-12-06T14:33:21.317Z,5
2018-12-06T14:34:31.019Z,5
2018-12-06T14:35:40.981Z,5
2018-12-06T14:37:04.271Z,5
2018-12-06T14:38:14.120Z,0
2018-12-06T14:39:23.823Z,0
2018-12-06T14:40:33.795Z,0
2018-12-06T14:41:43.763Z,0
2018-12-06T14:42:53.461Z,0
2018-12-06T14:44:03.171Z,0
2018-12-06T14:45:12.899Z,0
2018-12-06T14:46:22.598Z,0
2018-12-06T14:47:32.559Z,0
2018-12-06T14:48:42.542Z,0
2018-12-06T14:49:52.517Z,0
2018-12-06T14:51:02.211Z,0
2018-12-06T14:52:11.954Z,0
2018-12-06T14:53:21.927Z,0
2018-12-06T14:54:31.880Z,0
2018-12-06T14:55:42.062Z,0
2018-12-06T14:56:52.057Z,0
2018-12-06T14:58:01.758Z,0
2018-12-06T14:59:11.765Z,0
2018-12-06T15:00:21.789Z,0
2018-12-06T15:01:31.764Z,0
2018-12-06T15:02:40.992Z,0
2018-12-06T15:03:50.963Z,0
2018-12-06T15:05:00.941Z,0
2018-12-06T15:06:10.916Z,0
2018-12-06T15:07:20.875Z,0
2018-12-06T15:08:30.637Z,0
2018-12-06T15:09:40.592Z,0
2018-12-06T15:10:50.557Z,0
2018-12-06T15:12:00.515Z,0
2018-12-06T15:13:10.476Z,0
2018-12-06T15:14:20.187Z,0
2018-12-06T15:15:29.891Z,0
2018-12-06T15:16:39.837Z,0
2018-12-06T15:17:49.821Z,0
2018-12-06T15:18:59.772Z,0
2018-12-06T15:20:09.520Z,0
2018-12-06T15:21:19.233Z,0
2018-12-06T15:22:29.196Z,0
2018-12-06T15:23:39.174Z,0
2018-12-06T15:24:49.129Z,0
2018-12-06T15:25:59.099Z,0
2018-12-06T15:27:09.081Z,0
2018-12-06T15:28:19.036Z,0
2018-12-06T15:29:28.498Z,0
2018-12-06T15:30:38.196Z,0
2018-12-06T15:31:47.645Z,0
2018-12-06T15:32:57.624Z,0
2018-12-06T15:34:07.326Z,0
2018-12-06T15:35:18.251Z,0
2018-12-06T15:36:28.212Z,0
2018-12-06T15:37:37.661Z,0
2018-12-06T15:38:47.614Z,0
2018-12-06T15:39:57.584Z,0
2018-12-06T15:41:07.548Z,0
2018-12-06T15:42:17.236Z,0
2018-12-06T15:43:27.213Z,0
2018-12-06T15:44:37.184Z,0
2018-12-06T15:45:47.171Z,0
2018-12-06T15:46:56.860Z,0
2018-12-06T15:48:06.554Z,0
2018-12-06T15:49:16.520Z,0
2018-12-06T15:50:26.486Z,0
2018-12-06T15:51:36.172Z,0
2018-12-06T15:52:46.118Z,0
2018-12-06T15:53:56.078Z,0
2018-12-06T15:55:06.032Z,0
2018-12-06T15:56:15.982Z,0
2018-12-06T15:57:25.767Z,0
2018-12-06T15:58:35.816Z,0
2018-12-06T15:59:45.782Z,0
2018-12-06T16:00:55.736Z,0
2018-12-06T16:02:05.701Z,0
2018-12-06T16:03:15.410Z,0
2018-12-06T16:04:25.370Z,0
2018-12-06T16:05:34.321Z,0
2018-12-06T16:06:44.283Z,0
2018-12-06T16:07:54.232Z,0
2018-12-06T16:09:04.022Z,0
2018-12-06T16:10:13.980Z,0
2018-12-06T16:11:23.946Z,0
2018-12-06T16:12:33.904Z,0
2018-12-06T16:13:43.602Z,0
2018-12-06T16:14:53.305Z,0
2018-12-06T16:16:03.250Z,0
2018-12-06T16:17:13.202Z,0
2018-12-06T16:18:23.186Z,0
2018-12-06T16:19:33.147Z,0
2018-12-06T16:20:43.107Z,0
2018-12-06T16:21:53.073Z,0
2018-12-06T16:23:03.988Z,0
2018-12-06T16:24:13.937Z,0
2018-12-06T16:25:23.913Z,0
2018-12-06T16:26:33.888Z,0
2018-12-06T16:27:43.620Z,0
2018-12-06T16:28:53.664Z,0
2018-12-06T16:30:03.358Z,0
2018-12-06T16:31:13.071Z,0
2018-12-06T16:32:23.015Z,0
2018-12-06T16:33:32.941Z,0
2018-12-06T16:34:42.634Z,0
2018-12-06T16:35:53.445Z,0
2018-12-06T16:37:03.382Z,0
2018-12-06T16:38:13.351Z,0
2018-12-06T16:39:23.311Z,0
2018-12-06T16:40:33.250Z,0
2018-12-06T16:41:42.952Z,0
2018-12-06T16:42:52.934Z,0
2018-12-06T16:44:02.627Z,0
2018-12-06T16:45:12.595Z,0
2018-12-06T16:46:22.276Z,0
2018-12-06T16:47:31.723Z,0
2018-12-06T16:48:41.191Z,0
2018-12-06T16:49:51.147Z,0
2018-12-06T16:51:00.853Z,0
2018-12-06T16:52:10.805Z,0